Time;durP1;ratioP1;P1;durP2;ratioP2;P2;SDS_P1;SDS_P2;PMS_P1;PMS_P2;Temp;Humidity;BMP_temperature;BMP_pressure;BME280_temperature;BME280_humidity;BME280_pressure;Samples;Min_cycle;Max_cycle;Signal;HPM_P1;HPM_P2
2024/01/04 00:02:11;;;;;;;2.30;0.70;;;;;4.60;92495.00;;;;7390673;19;20148;-81
2024/01/04 00:04:46;;;;;;;1.07;0.60;;;;;4.60;92500.00;;;;7400783;19;20600;-81
2024/01/04 00:07:20;;;;;;;1.13;0.70;;;;;4.50;92504.00;;;;7397204;19;20136;-79
2024/01/04 00:09:54;;;;;;;1.13;0.70;;;;;4.50;92509.00;;;;7401168;19;20465;-83
2024/01/04 00:12:22;;;;;;;2.50;1.13;;;;;4.50;92494.00;;;;7397153;19;20578;-82
2024/01/04 00:14:59;;;;;;;4.77;0.67;;;;;4.50;92481.00;;;;7400917;19;20135;-81
2024/01/04 00:17:26;;;;;;;2.43;0.73;;;;;4.50;92473.00;;;;7398756;19;20165;-81
2024/01/04 00:20:02;;;;;;;4.13;0.90;;;;;4.60;92482.00;;;;7398449;19;20148;-80
2024/01/04 00:22:37;;;;;;;0.63;0.30;;;;;4.50;92481.00;;;;7398401;19;20173;-79
2024/01/04 00:25:11;;;;;;;2.10;0.50;;;;;4.50;92500.00;;;;7400349;19;20140;-79
2024/01/04 00:27:39;;;;;;;2.23;0.67;;;;;4.60;92500.00;;;;7398564;19;20177;-80
2024/01/04 00:30:13;;;;;;;4.03;0.73;;;;;4.50;92488.00;;;;7400615;19;20136;-79
2024/01/04 00:32:47;;;;;;;2.50;0.70;;;;;4.50;92515.00;;;;7397621;19;20617;-80
2024/01/04 00:35:22;;;;;;;2.47;0.93;;;;;4.50;92490.00;;;;7398536;19;20135;-82
2024/01/04 00:37:50;;;;;;;1.20;0.60;;;;;4.50;92499.00;;;;7396987;19;20211;-80
2024/01/04 00:40:32;;;;;;;3.07;0.87;;;;;4.40;92505.00;;;;7398492;19;20168;-81
2024/01/04 00:43:00;;;;;;;3.83;0.60;;;;;4.40;92525.00;;;;7398061;19;20156;-81
2024/01/04 00:45:34;;;;;;;3.13;0.70;;;;;4.50;92524.00;;;;7398961;19;20148;-81
2024/01/04 00:48:15;;;;;;;1.50;0.60;;;;;4.40;92533.00;;;;7399636;19;20125;-81
2024/01/04 00:50:49;;;;;;;2.63;0.73;;;;;4.40;92536.00;;;;7398072;19;20132;-81
2024/01/04 00:53:23;;;;;;;1.87;0.57;;;;;4.30;92530.00;;;;7397084;19;20171;-81
2024/01/04 00:55:57;;;;;;;2.43;0.60;;;;;4.40;92530.00;;;;7398932;19;20616;-83
2024/01/04 00:58:31;;;;;;;2.80;0.50;;;;;4.40;92523.00;;;;7397832;19;20152;-80
2024/01/04 01:00:59;;;;;;;3.37;0.47;;;;;4.20;92532.00;;;;7398280;19;20209;-85
2024/01/04 01:03:33;;;;;;;4.00;0.83;;;;;4.30;92534.00;;;;7398178;19;20587;-83
2024/01/04 01:06:01;;;;;;;2.50;0.40;;;;;4.30;92539.00;;;;7398568;19;20157;-83
2024/01/04 01:08:35;;;;;;;2.40;0.40;;;;;4.30;92519.00;;;;7393051;19;20140;-88
2024/01/04 01:11:03;;;;;;;1.77;0.50;;;;;4.40;92546.00;;;;7400679;19;20172;-86
2024/01/04 01:13:37;;;;;;;3.27;0.93;;;;;4.40;92548.00;;;;7402708;19;20137;-86
2024/01/04 01:16:05;;;;;;;2.33;0.40;;;;;4.50;92536.00;;;;7405459;19;20137;-84
2024/01/04 01:18:33;;;;;;;1.87;0.43;;;;;4.50;92539.00;;;;7405632;19;20628;-85
2024/01/04 01:21:07;;;;;;;1.27;0.83;;;;;4.50;92554.00;;;;7404816;19;20144;-85
2024/01/04 01:23:35;;;;;;;1.97;0.70;;;;;4.50;92541.00;;;;7406665;19;20161;-85
2024/01/04 01:26:09;;;;;;;2.40;0.80;;;;;4.60;92560.00;;;;7404906;19;20604;-85
2024/01/04 01:28:37;;;;;;;1.40;0.70;;;;;4.60;92567.00;;;;7400825;19;20563;-83
2024/01/04 01:31:12;;;;;;;1.57;0.63;;;;;4.60;92596.00;;;;7404740;19;20140;-83
2024/01/04 01:33:46;;;;;;;2.30;0.53;;;;;4.50;92610.00;;;;7403275;19;20508;-82
2024/01/04 01:36:20;;;;;;;1.80;0.43;;;;;4.40;92602.00;;;;7402779;19;20630;-86
2024/01/04 01:39:01;;;;;;;1.37;0.53;;;;;4.20;92613.00;;;;7401982;19;20653;-86
2024/01/04 01:41:28;;;;;;;2.20;0.50;;;;;4.30;92610.00;;;;7404309;19;20153;-85
2024/01/04 01:44:02;;;;;;;0.47;0.27;;;;;4.20;92609.00;;;;7403539;19;20596;-88
2024/01/04 01:46:30;;;;;;;0.77;0.20;;;;;4.20;92614.00;;;;7404047;19;20137;-87
2024/01/04 01:49:05;;;;;;;1.13;0.30;;;;;4.00;92600.00;;;;7403571;19;20483;-85
2024/01/04 01:51:33;;;;;;;0.63;0.17;;;;;4.00;92584.00;;;;7403172;19;20628;-86
2024/01/04 01:54:08;;;;;;;1.00;0.33;;;;;4.10;92580.00;;;;7402595;19;20145;-86
2024/01/04 01:56:36;;;;;;;1.47;0.30;;;;;4.20;92572.00;;;;7404695;19;20608;-84
2024/01/04 01:59:12;;;;;;;1.13;0.30;;;;;4.30;92568.00;;;;7406014;19;20132;-83
2024/01/04 02:01:54;;;;;;;1.27;0.40;;;;;4.40;92577.00;;;;7402593;19;20132;-84
2024/01/04 02:04:28;;;;;;;0.57;0.50;;;;;4.40;92573.00;;;;7403912;19;20161;-85
2024/01/04 02:07:02;;;;;;;0.50;0.30;;;;;4.40;92604.00;;;;7402743;19;20457;-86
2024/01/04 02:09:36;;;;;;;0.33;0.20;;;;;4.40;92607.00;;;;7403918;19;20145;-80
2024/01/04 02:12:15;;;;;;;0.77;0.33;;;;;4.30;92616.00;;;;7401358;19;20188;-81
2024/01/04 02:14:53;;;;;;;0.50;0.23;;;;;4.40;92620.00;;;;7402492;19;20173;-81
2024/01/04 02:17:25;;;;;;;1.40;0.30;;;;;4.30;92630.00;;;;7403098;19;20230;-83
2024/01/04 02:19:59;;;;;;;1.23;0.27;;;;;4.40;92632.00;;;;7402373;19;20141;-80
2024/01/04 02:22:36;;;;;;;0.87;0.27;;;;;4.40;92632.00;;;;7402811;19;20599;-81
2024/01/04 02:25:07;;;;;;;1.83;0.33;;;;;4.20;92618.00;;;;7401276;19;20137;-84
2024/01/04 02:27:41;;;;;;;0.73;0.40;;;;;4.30;92619.00;;;;7403572;19;20651;-84
2024/01/04 02:30:11;;;;;;;0.40;0.23;;;;;4.40;92627.00;;;;7403396;19;20153;-80
2024/01/04 02:32:46;;;;;;;0.40;0.20;;;;;4.50;92644.00;;;;7402435;19;20204;-82
2024/01/04 02:35:15;;;;;;;2.17;0.50;;;;;4.50;92620.00;;;;7404502;19;20161;-84
2024/01/04 02:37:49;;;;;;;1.30;0.30;;;;;4.50;92639.00;;;;7402131;19;20164;-84
2024/01/04 02:40:24;;;;;;;1.23;0.30;;;;;4.50;92644.00;;;;7400199;19;20165;-83
2024/01/04 02:42:58;;;;;;;2.63;0.60;;;;;4.60;92639.00;;;;7403198;19;20546;-82
2024/01/04 02:45:26;;;;;;;1.03;0.30;;;;;4.60;92648.00;;;;7404080;19;20631;-83
2024/01/04 02:48:00;;;;;;;1.97;0.50;;;;;4.60;92651.00;;;;7402521;19;20151;-80
2024/01/04 02:50:28;;;;;;;3.10;0.60;;;;;4.70;92624.00;;;;7401746;19;20162;-81
2024/01/04 02:53:02;;;;;;;1.80;0.50;;;;;4.70;92645.00;;;;7401137;19;20141;-79
2024/01/04 02:55:30;;;;;;;0.90;0.80;;;;;4.80;92654.00;;;;7402278;19;20745;-80
2024/01/04 02:58:04;;;;;;;2.50;1.17;;;;;4.80;92656.00;;;;7403508;19;20422;-81
2024/01/04 03:00:32;;;;;;;2.70;1.50;;;;;4.80;92653.00;;;;7401382;19;20156;-80
2024/01/04 03:03:06;;;;;;;4.37;1.03;;;;;4.90;92664.00;;;;7401562;19;20119;-81
2024/01/04 03:05:34;;;;;;;2.37;0.53;;;;;4.80;92659.00;;;;7400311;19;20129;-83
2024/01/04 03:08:08;;;;;;;3.70;0.90;;;;;4.80;92678.00;;;;7401844;19;20490;-84
2024/01/04 03:10:36;;;;;;;6.13;1.00;;;;;4.70;92680.00;;;;7402001;19;20125;-85
2024/01/04 03:13:10;;;;;;;3.63;1.13;;;;;4.80;92670.00;;;;7400314;19;20137;-80
2024/01/04 03:15:38;;;;;;;8.60;1.17;;;;;4.70;92660.00;;;;7400480;19;20184;-84
2024/01/04 03:18:05;;;;;;;6.20;1.00;;;;;4.80;92684.00;;;;7401849;19;20149;-84
2024/01/04 03:20:39;;;;;;;3.70;1.10;;;;;4.70;92694.00;;;;7400603;19;20136;-84
2024/01/04 03:23:07;;;;;;;3.03;1.17;;;;;4.90;92700.00;;;;7401034;19;20124;-79
2024/01/04 03:25:41;;;;;;;6.83;1.20;;;;;4.90;92707.00;;;;7400631;19;20149;-82
2024/01/04 03:28:09;;;;;;;3.40;0.90;;;;;4.80;92694.00;;;;7401339;19;20481;-84
2024/01/04 03:30:43;;;;;;;6.17;1.20;;;;;4.70;92694.00;;;;7398222;19;20628;-83
2024/01/04 03:33:17;;;;;;;5.30;1.33;;;;;4.70;92694.00;;;;7398513;19;20487;-84
2024/01/04 03:35:51;;;;;;;4.17;1.10;;;;;4.80;92714.00;;;;7399857;19;20149;-83
2024/01/04 03:38:32;;;;;;;2.43;0.57;;;;;4.90;92695.00;;;;7398966;19;20137;-82
2024/01/04 03:41:07;;;;;;;2.73;0.83;;;;;4.90;92702.00;;;;7399574;19;20152;-79
2024/01/04 03:43:41;;;;;;;3.77;0.90;;;;;4.90;92699.00;;;;7397849;19;20471;-80
2024/01/04 03:46:16;;;;;;;9.13;2.03;;;;;4.80;92700.00;;;;7399730;19;20133;-84
2024/01/04 03:48:50;;;;;;;6.30;1.47;;;;;5.00;92698.00;;;;7400378;19;20136;-82
2024/01/04 03:51:18;;;;;;;8.70;0.93;;;;;5.00;92713.00;;;;7400330;19;20574;-79
2024/01/04 03:53:52;;;;;;;4.63;1.53;;;;;4.90;92688.00;;;;7397684;19;20133;-83
2024/01/04 03:56:20;;;;;;;7.23;1.23;;;;;5.00;92711.00;;;;7399687;19;20469;-81
2024/01/04 03:58:54;;;;;;;3.70;1.17;;;;;4.90;92733.00;;;;7399173;19;20150;-81
2024/01/04 04:01:22;;;;;;;6.17;1.17;;;;;5.00;92701.00;;;;7399618;19;20215;-80
2024/01/04 04:03:56;;;;;;;3.53;1.30;;;;;5.00;92719.00;;;;7399764;19;20146;-78
2024/01/04 04:06:31;;;;;;;7.23;1.10;;;;;5.10;92719.00;;;;7400235;19;20125;-80
2024/01/04 04:09:09;;;;;;;7.57;1.70;;;;;5.10;92721.00;;;;7398802;19;20160;-79
2024/01/04 04:11:46;;;;;;;3.90;1.03;;;;;5.10;92747.00;;;;7398033;19;20643;-79
2024/01/04 04:14:21;;;;;;;4.97;1.17;;;;;5.10;92751.00;;;;7398356;19;20664;-82
2024/01/04 04:16:56;;;;;;;2.90;0.77;;;;;5.00;92752.00;;;;7398771;19;20136;-80
2024/01/04 04:19:31;;;;;;;3.47;0.50;;;;;5.00;92746.00;;;;7397262;19;20172;-83
2024/01/04 04:21:59;;;;;;;1.70;0.73;;;;;5.10;92774.00;;;;7398371;19;20603;-78
2024/01/04 04:24:35;;;;;;;4.10;1.00;;;;;5.20;92762.00;;;;7400317;19;20208;-79
2024/01/04 04:27:02;;;;;;;5.23;1.20;;;;;5.20;92742.00;;;;7398659;19;20140;-80
2024/01/04 04:29:41;;;;;;;4.03;1.27;;;;;5.20;92759.00;;;;7398586;19;20132;-80
2024/01/04 04:32:16;;;;;;;4.17;1.10;;;;;5.20;92764.00;;;;7399711;19;20144;-80
2024/01/04 04:34:43;;;;;;;3.63;0.97;;;;;5.10;92752.00;;;;7394077;19;20587;-84
2024/01/04 04:37:17;;;;;;;2.33;0.80;;;;;5.20;92764.00;;;;7396851;19;20167;-78
2024/01/04 04:39:52;;;;;;;5.13;1.20;;;;;5.00;92776.00;;;;7396625;19;20254;-82
2024/01/04 04:42:26;;;;;;;1.70;0.90;;;;;5.10;92772.00;;;;7397224;19;20834;-82
2024/01/04 04:44:54;;;;;;;4.57;1.00;;;;;5.20;92758.00;;;;7398088;19;20144;-79
2024/01/04 04:47:29;;;;;;;4.47;1.30;;;;;5.20;92777.00;;;;7398417;19;20718;-81
2024/01/04 04:49:57;;;;;;;4.87;1.43;;;;;5.20;92752.00;;;;7397657;19;20469;-79
2024/01/04 04:52:25;;;;;;;6.20;0.87;;;;;5.10;92778.00;;;;7399155;19;20128;-78
2024/01/04 04:54:59;;;;;;;1.67;0.70;;;;;4.80;92768.00;;;;7398205;19;20136;-81
2024/01/04 04:57:27;;;;;;;2.63;1.40;;;;;4.60;92780.00;;;;7400156;19;20145;-82
2024/01/04 05:00:01;;;;;;;8.37;1.47;;;;;4.60;92775.00;;;;7397740;19;20146;-82
2024/01/04 05:02:36;;;;;;;3.13;0.83;;;;;4.70;92785.00;;;;7397195;19;20625;-81
2024/01/04 05:05:10;;;;;;;4.60;0.90;;;;;4.70;92788.00;;;;7397166;19;20124;-81
2024/01/04 05:07:38;;;;;;;5.13;1.10;;;;;4.60;92792.00;;;;7398821;19;20477;-82
2024/01/04 05:10:12;;;;;;;3.13;0.70;;;;;4.60;92791.00;;;;7398153;19;20140;-79
2024/01/04 05:12:46;;;;;;;4.57;0.80;;;;;4.70;92802.00;;;;7395619;19;20157;-80
2024/01/04 05:15:20;;;;;;;5.13;1.00;;;;;4.70;92805.00;;;;7396841;19;20125;-78
2024/01/04 05:17:48;;;;;;;2.13;0.90;;;;;4.60;92805.00;;;;7396980;19;20147;-82
2024/01/04 05:20:22;;;;;;;3.33;0.93;;;;;4.60;92818.00;;;;7396952;19;20128;-82
2024/01/04 05:22:52;;;;;;;2.60;0.80;;;;;4.60;92821.00;;;;7399093;19;20125;-83
2024/01/04 05:25:20;;;;;;;7.77;1.17;;;;;4.70;92815.00;;;;7396892;19;20169;-84
2024/01/04 05:27:54;;;;;;;4.33;0.80;;;;;4.70;92831.00;;;;7397478;19;20156;-80
2024/01/04 05:30:22;;;;;;;6.47;1.00;;;;;4.70;92819.00;;;;7398069;19;20232;-81
2024/01/04 05:32:56;;;;;;;3.23;0.90;;;;;4.70;92834.00;;;;7397720;19;20140;-83
2024/01/04 05:35:24;;;;;;;4.93;1.00;;;;;4.60;92837.00;;;;7395012;19;20133;-84
2024/01/04 05:37:58;;;;;;;7.13;1.00;;;;;4.70;92833.00;;;;7397638;19;20141;-80
2024/01/04 05:40:33;;;;;;;5.80;0.83;;;;;4.60;92804.00;;;;7393826;19;20181;-83
2024/01/04 05:43:07;;;;;;;4.10;1.00;;;;;4.70;92839.00;;;;7395951;19;20200;-84
2024/01/04 05:45:41;;;;;;;2.77;0.90;;;;;4.70;92838.00;;;;7396614;19;20144;-80
2024/01/04 05:48:15;;;;;;;4.03;0.97;;;;;4.60;92852.00;;;;7396447;19;20459;-83
2024/01/04 05:50:43;;;;;;;3.93;1.27;;;;;4.60;92862.00;;;;7396885;19;20159;-83
2024/01/04 05:53:17;;;;;;;6.80;1.27;;;;;4.60;92852.00;;;;7395340;19;20148;-79
2024/01/04 05:55:51;;;;;;;6.77;1.40;;;;;4.70;92849.00;;;;7396131;19;20139;-84
2024/01/04 05:58:19;;;;;;;6.83;1.10;;;;;4.70;92864.00;;;;7404842;19;20706;-85
2024/01/04 06:00:47;;;;;;;2.37;1.17;;;;;4.80;92874.00;;;;7402879;19;20144;-85
2024/01/04 06:03:21;;;;;;;3.30;0.93;;;;;4.70;92862.00;;;;7404316;19;20596;-78
2024/01/04 06:05:55;;;;;;;5.80;1.17;;;;;4.80;92869.00;;;;7403264;19;20152;-79
2024/01/04 06:08:23;;;;;;;2.10;0.90;;;;;4.70;92890.00;;;;7403370;19;20145;-80
2024/01/04 06:10:57;;;;;;;1.43;0.63;;;;;4.60;92876.00;;;;7402498;19;20137;-84
2024/01/04 06:13:26;;;;;;;5.37;1.40;;;;;4.70;92873.00;;;;7404270;19;20601;-83
2024/01/04 06:16:07;;;;;;;5.47;1.20;;;;;4.70;92896.00;;;;7404326;19;20152;-85
2024/01/04 06:18:35;;;;;;;3.23;0.93;;;;;4.70;92904.00;;;;7404475;19;20133;-79
2024/01/04 06:21:09;;;;;;;5.50;1.33;;;;;4.90;92889.00;;;;7402206;19;21596;-80
2024/01/04 06:23:37;;;;;;;5.40;1.20;;;;;4.80;92900.00;;;;7402210;19;20148;-78
2024/01/04 06:26:20;;;;;;;5.47;1.13;;;;;4.70;92895.00;;;;7401699;19;20157;-78
2024/01/04 06:28:54;;;;;;;7.10;1.33;;;;;4.70;92911.00;;;;7402823;19;20657;-79
2024/01/04 06:31:28;;;;;;;5.37;1.00;;;;;4.70;92928.00;;;;7402363;19;20125;-79
2024/01/04 06:33:56;;;;;;;5.47;1.03;;;;;4.70;92919.00;;;;7401186;19;20177;-79
2024/01/04 06:36:30;;;;;;;6.23;1.10;;;;;4.70;92939.00;;;;7391888;19;20136;-83
2024/01/04 06:39:05;;;;;;;3.80;1.50;;;;;4.70;92936.00;;;;7394948;19;20515;-84
2024/01/04 06:41:43;;;;;;;4.47;0.90;;;;;4.60;92924.00;;;;7393330;19;20155;-85
2024/01/04 06:44:11;;;;;;;1.93;0.80;;;;;4.60;92929.00;;;;7396159;19;20144;-85
2024/01/04 06:46:54;;;;;;;6.80;1.10;;;;;4.60;92927.00;;;;7399499;19;20177;-84
2024/01/04 06:49:30;;;;;;;4.50;1.20;;;;;4.40;92945.00;;;;7401278;19;20128;-86
2024/01/04 06:51:58;;;;;;;3.57;1.07;;;;;4.50;92950.00;;;;7399193;19;20148;-85
2024/01/04 06:54:32;;;;;;;3.13;1.10;;;;;4.50;92954.00;;;;7403274;19;20129;-85
2024/01/04 06:57:06;;;;;;;4.20;1.00;;;;;4.50;92952.00;;;;7402795;19;20147;-81
2024/01/04 06:59:35;;;;;;;1.33;0.53;;;;;4.40;92951.00;;;;7403857;19;20493;-81
2024/01/04 07:02:11;;;;;;;6.73;1.10;;;;;4.40;92952.00;;;;7405426;19;20145;-87
2024/01/04 07:04:39;;;;;;;3.30;1.40;;;;;4.30;92957.00;;;;7409259;19;20139;-84
2024/01/04 07:07:13;;;;;;;4.47;1.13;;;;;4.40;92975.00;;;;7413745;19;21290;-86
2024/01/04 07:09:41;;;;;;;5.03;0.90;;;;;4.40;92970.00;;;;7411072;19;20478;-84
2024/01/04 07:12:15;;;;;;;4.50;1.00;;;;;4.30;92989.00;;;;7411123;19;20224;-83
2024/01/04 07:14:43;;;;;;;3.73;0.90;;;;;4.20;92990.00;;;;7415521;19;20145;-85
2024/01/04 07:17:17;;;;;;;6.67;1.00;;;;;4.10;92984.00;;;;7414851;19;20152;-85
2024/01/04 07:19:45;;;;;;;4.27;1.03;;;;;4.10;92982.00;;;;7417701;19;20144;-84
2024/01/04 07:22:21;;;;;;;3.13;1.00;;;;;4.00;92977.00;;;;7419011;19;20128;-84
2024/01/04 07:24:58;;;;;;;3.10;1.20;;;;;4.20;92985.00;;;;7409262;19;20181;-80
2024/01/04 07:27:29;;;;;;;4.93;1.53;;;;;4.10;92961.00;;;;7411574;19;20204;-86
2024/01/04 07:30:06;;;;;;;3.53;1.17;;;;;4.20;92970.00;;;;7410406;19;20149;-88
2024/01/04 07:32:34;;;;;;;6.17;1.13;;;;;4.10;92967.00;;;;7413714;19;20154;-83
2024/01/04 07:35:12;;;;;;;4.80;1.60;;;;;4.30;92988.00;;;;7413613;19;20148;-82
2024/01/04 07:37:44;;;;;;;8.90;1.73;;;;;4.20;92968.00;;;;7417139;19;20154;-85
2024/01/04 07:40:18;;;;;;;11.53;1.90;;;;;4.20;92979.00;;;;7416473;19;20167;-84
2024/01/04 07:42:52;;;;;;;10.70;1.77;;;;;4.00;92965.00;;;;7415616;19;20137;-85
2024/01/04 07:45:27;;;;;;;11.57;1.90;;;;;4.00;92981.00;;;;7407333;19;20144;-84
2024/01/04 07:47:54;;;;;;;5.73;1.60;;;;;4.00;92987.00;;;;7410054;19;20136;-88
2024/01/04 07:50:28;;;;;;;6.77;1.47;;;;;4.00;92997.00;;;;7412022;19;20217;-87
2024/01/04 07:53:04;;;;;;;5.10;1.70;;;;;4.20;92983.00;;;;7415312;19;20152;-80
2024/01/04 07:55:40;;;;;;;5.73;1.60;;;;;4.20;92991.00;;;;7412699;19;20580;-85
2024/01/04 07:58:07;;;;;;;5.87;1.37;;;;;4.10;92995.00;;;;7414412;19;20145;-82
2024/01/04 08:00:35;;;;;;;8.83;1.90;;;;;4.30;93000.00;;;;7415604;19;20129;-84
2024/01/04 08:03:10;;;;;;;4.83;1.40;;;;;4.50;92991.00;;;;7416670;19;20139;-85
2024/01/04 08:05:44;;;;;;;9.30;1.33;;;;;4.60;92997.00;;;;7411293;19;20176;-82
2024/01/04 08:08:18;;;;;;;5.80;1.37;;;;;4.80;92995.00;;;;7402898;19;20173;-84
2024/01/04 08:11:01;;;;;;;7.70;1.63;;;;;4.80;92998.00;;;;7413958;19;20148;-83
2024/01/04 08:13:29;;;;;;;10.27;1.37;;;;;4.60;92997.00;;;;7415051;19;20152;-83
2024/01/04 08:16:04;;;;;;;7.90;1.40;;;;;4.80;92989.00;;;;7399173;19;20140;-84
2024/01/04 08:18:32;;;;;;;9.93;1.70;;;;;4.80;92989.00;;;;7386434;19;20200;-85
2024/01/04 08:21:07;;;;;;;9.23;1.50;;;;;5.00;92989.00;;;;7384630;19;20169;-85
2024/01/04 08:23:34;;;;;;;3.93;1.33;;;;;4.90;93003.00;;;;7388610;19;20131;-85
2024/01/04 08:26:10;;;;;;;4.37;1.23;;;;;5.10;92993.00;;;;7390727;19;20177;-85
2024/01/04 08:28:39;;;;;;;5.47;1.30;;;;;5.10;93017.00;;;;7389661;19;20137;-85
2024/01/04 08:31:16;;;;;;;3.73;1.10;;;;;5.30;93010.00;;;;7396436;19;20211;-87
2024/01/04 08:33:44;;;;;;;6.97;1.87;;;;;4.90;93019.00;;;;7387064;19;20228;-85
2024/01/04 08:36:19;;;;;;;4.13;1.20;;;;;5.00;93017.00;;;;7392572;19;20132;-85
2024/01/04 08:38:47;;;;;;;7.03;1.50;;;;;5.10;93022.00;;;;7396142;19;20148;-83
2024/01/04 08:41:28;;;;;;;5.37;1.70;;;;;5.50;93013.00;;;;7386053;19;20160;-84
2024/01/04 08:43:56;;;;;;;12.53;1.60;;;;;5.30;93013.00;;;;7380435;19;20160;-81
2024/01/04 08:46:30;;;;;;;6.83;1.97;;;;;5.50;93015.00;;;;7383822;19;20487;-81
2024/01/04 08:48:58;;;;;;;9.40;2.13;;;;;5.70;93008.00;;;;7392875;19;20165;-82
2024/01/04 08:51:34;;;;;;;5.37;1.40;;;;;5.50;93035.00;;;;7392930;19;20516;-82
2024/01/04 08:54:02;;;;;;;6.00;1.53;;;;;5.30;93044.00;;;;7391639;19;20159;-82
2024/01/04 08:56:31;;;;;;;8.10;1.30;;;;;5.10;93023.00;;;;7391918;19;20137;-84
2024/01/04 08:59:05;;;;;;;6.63;1.60;;;;;5.50;93023.00;;;;7391925;19;20148;-84
2024/01/04 09:01:33;;;;;;;6.10;1.43;;;;;5.50;93025.00;;;;7391981;19;20151;-85
2024/01/04 09:04:08;;;;;;;3.93;1.30;;;;;6.10;93016.00;;;;7392089;19;20610;-82
2024/01/04 09:06:43;;;;;;;6.47;1.67;;;;;5.80;93034.00;;;;7394297;19;20148;-81
2024/01/04 09:09:19;;;;;;;6.33;1.27;;;;;6.60;93033.00;;;;7393363;19;20142;-81
2024/01/04 09:11:48;;;;;;;8.33;1.20;;;;;6.50;93033.00;;;;7394891;19;20180;-86
2024/01/04 09:14:22;;;;;;;3.40;1.27;;;;;5.80;93047.00;;;;7399634;19;20596;-86
2024/01/04 09:16:51;;;;;;;5.90;1.20;;;;;6.00;93055.00;;;;7399378;19;20193;-86
2024/01/04 09:19:27;;;;;;;4.60;1.30;;;;;5.70;93051.00;;;;7413516;19;20137;-85
2024/01/04 09:21:58;;;;;;;5.23;1.27;;;;;5.30;93058.00;;;;7398421;19;20185;-82
2024/01/04 09:24:32;;;;;;;3.67;1.20;;;;;5.40;93070.00;;;;7389022;19;20153;-83
2024/01/04 09:27:02;;;;;;;7.50;1.60;;;;;5.40;93073.00;;;;7378894;19;20145;-83
2024/01/04 09:29:36;;;;;;;5.27;1.50;;;;;5.10;93090.00;;;;7381462;19;20157;-84
2024/01/04 09:32:04;;;;;;;8.13;1.80;;;;;4.90;93095.00;;;;7386896;19;20144;-85
2024/01/04 09:34:38;;;;;;;4.70;1.47;;;;;4.70;93108.00;;;;7393420;19;20182;-85
2024/01/04 09:37:07;;;;;;;7.43;1.50;;;;;4.80;93104.00;;;;7392364;19;20144;-85
2024/01/04 09:39:41;;;;;;;5.20;1.20;;;;;4.60;93109.00;;;;7395601;19;20171;-82
2024/01/04 09:42:28;;;;;;;3.83;1.30;;;;;4.60;93105.00;;;;7386977;19;20141;-83
2024/01/04 09:45:06;;;;;;;5.17;1.50;;;;;4.90;93103.00;;;;7395847;19;20125;-83
2024/01/04 09:47:40;;;;;;;7.27;1.33;;;;;4.90;93105.00;;;;7398982;19;20149;-82
2024/01/04 09:50:15;;;;;;;8.13;1.87;;;;;4.90;93118.00;;;;7394871;19;20727;-82
2024/01/04 09:52:45;;;;;;;5.50;1.47;;;;;4.80;93130.00;;;;7396195;19;20163;-82
2024/01/04 09:55:21;;;;;;;5.13;1.30;;;;;4.70;93137.00;;;;7393836;19;20196;-81
2024/01/04 09:57:56;;;;;;;8.03;1.70;;;;;4.60;93146.00;;;;7396185;19;20472;-83
2024/01/04 10:00:31;;;;;;;8.60;1.50;;;;;4.50;93141.00;;;;7395904;19;20177;-82
2024/01/04 10:03:12;;;;;;;4.93;1.20;;;;;4.30;93142.00;;;;7396879;19;20156;-83
2024/01/04 10:05:42;;;;;;;2.80;1.27;;;;;4.40;93151.00;;;;7400377;19;20267;-85
2024/01/04 10:08:33;;;;;;;2.50;0.60;;;;;4.40;93157.00;;;;7404164;19;20618;-83
2024/01/04 10:11:19;;;;;;;2.60;1.00;;;;;4.20;93174.00;;;;7398910;19;20183;-84
2024/01/04 10:13:54;;;;;;;4.67;0.93;;;;;4.40;93165.00;;;;7399464;19;20879;-85
2024/01/04 10:16:23;;;;;;;2.97;0.90;;;;;3.90;93173.00;;;;7414237;19;20241;-80
2024/01/04 10:18:53;;;;;;;0.83;0.50;;;;;4.10;93176.00;;;;7399736;19;20144;-83
2024/01/04 10:21:35;;;;;;;2.47;0.60;;;;;4.20;93174.00;;;;7377934;19;20155;-82
2024/01/04 10:24:15;;;;;;;2.63;0.57;;;;;4.10;93176.00;;;;7374048;19;20170;-81
2024/01/04 10:26:57;;;;;;;2.27;0.40;;;;;4.00;93170.00;;;;7375721;19;20188;-81
2024/01/04 10:29:29;;;;;;;1.63;0.30;;;;;4.10;93172.00;;;;7376395;19;20496;-82
2024/01/04 10:32:05;;;;;;;1.23;0.40;;;;;4.20;93170.00;;;;7389785;19;20472;-81
2024/01/04 10:34:34;;;;;;;2.47;0.80;;;;;4.50;93167.00;;;;7392678;19;20144;-82
2024/01/04 10:37:11;;;;;;;1.27;0.57;;;;;4.20;93160.00;;;;7386405;19;20148;-82
2024/01/04 10:39:41;;;;;;;1.67;0.60;;;;;4.60;93153.00;;;;7373563;19;20180;-82
2024/01/04 10:42:22;;;;;;;0.43;0.30;;;;;4.80;93168.00;;;;7376393;19;20132;-83
2024/01/04 10:44:54;;;;;;;2.27;0.90;;;;;4.60;93164.00;;;;7374819;19;21049;-82
2024/01/04 10:47:29;;;;;;;2.93;1.20;;;;;4.50;93170.00;;;;7376054;19;20182;-81
2024/01/04 10:49:59;;;;;;;1.20;0.50;;;;;4.70;93168.00;;;;7374550;19;20168;-80
2024/01/04 10:52:37;;;;;;;1.73;0.60;;;;;4.60;93167.00;;;;7373504;19;20876;-84
2024/01/04 10:55:11;;;;;;;4.53;0.80;;;;;4.30;93165.00;;;;7372479;19;20152;-82
2024/01/04 10:57:46;;;;;;;2.20;0.70;;;;;4.10;93178.00;;;;7375015;19;20152;-80
2024/01/04 11:00:16;;;;;;;2.37;0.80;;;;;4.40;93178.00;;;;7375385;19;20165;-82
2024/01/04 11:02:52;;;;;;;2.43;0.90;;;;;4.30;93176.00;;;;7376454;19;20178;-82
2024/01/04 11:05:21;;;;;;;5.13;0.83;;;;;4.30;93172.00;;;;7380146;19;20876;-82
2024/01/04 11:07:56;;;;;;;1.40;0.60;;;;;4.00;93172.00;;;;7384344;19;20133;-81
2024/01/04 11:10:26;;;;;;;3.30;1.00;;;;;4.30;93176.00;;;;7389123;19;20149;-85
2024/01/04 11:13:01;;;;;;;1.13;0.50;;;;;4.10;93173.00;;;;7386084;19;20140;-82
2024/01/04 11:15:35;;;;;;;1.73;0.80;;;;;4.00;93187.00;;;;7401821;19;20219;-83
2024/01/04 11:18:12;;;;;;;1.80;0.50;;;;;4.20;93174.00;;;;7402824;19;20145;-87
2024/01/04 11:21:07;;;;;;;3.13;0.50;;;;;4.30;93175.00;;;;7403725;19;20509;-85
2024/01/04 11:24:01;;;;;;;0.87;0.30;;;;;4.20;93170.00;;;;7403201;19;20224;-84
2024/01/04 11:27:00;;;;;;;2.30;0.80;;;;;4.10;93153.00;;;;7401977;19;20569;-82
2024/01/04 11:29:42;;;;;;;2.77;0.73;;;;;5.50;93132.00;;;;7400673;19;20144;-82
2024/01/04 11:32:17;;;;;;;8.90;1.20;;;;;5.50;93133.00;;;;7401155;19;20511;-83
2024/01/04 11:34:51;;;;;;;4.00;1.10;;;;;5.40;93141.00;;;;7399720;19;20135;-86
2024/01/04 11:37:21;;;;;;;7.17;1.30;;;;;5.10;93133.00;;;;7400881;19;20164;-86
2024/01/04 11:40:06;;;;;;;6.57;1.40;;;;;5.50;93123.00;;;;7399922;19;20664;-86
2024/01/04 11:42:40;;;;;;;2.50;1.20;;;;;6.10;93125.00;;;;7401445;19;20153;-85
2024/01/04 11:45:16;;;;;;;5.27;1.20;;;;;6.10;93107.00;;;;7404709;19;20649;-87
2024/01/04 11:47:51;;;;;;;6.03;1.57;;;;;7.40;93119.00;;;;7402149;19;20148;-87
2024/01/04 11:50:28;;;;;;;5.07;1.37;;;;;7.30;93110.00;;;;7403011;19;20631;-86
2024/01/04 11:53:05;;;;;;;4.83;1.43;;;;;7.50;93123.00;;;;7400893;19;20208;-86
2024/01/04 11:55:43;;;;;;;9.33;1.60;;;;;7.60;93108.00;;;;7400961;19;20129;-86
2024/01/04 11:58:28;;;;;;;4.63;1.97;;;;;7.50;93094.00;;;;7397606;19;20161;-84
2024/01/04 12:00:57;;;;;;;8.80;1.80;;;;;8.00;93094.00;;;;7400537;19;20136;-85
2024/01/04 12:03:32;;;;;;;7.03;1.80;;;;;7.70;93091.00;;;;7401098;19;20168;-85
2024/01/04 12:06:02;;;;;;;4.93;1.50;;;;;8.00;93085.00;;;;7402124;19;20176;-87
2024/01/04 12:08:36;;;;;;;7.33;1.60;;;;;7.80;93090.00;;;;7401631;19;20543;-87
2024/01/04 12:11:04;;;;;;;6.13;1.30;;;;;7.90;93088.00;;;;7400306;19;20188;-87
2024/01/04 12:13:40;;;;;;;5.87;1.60;;;;;7.80;93097.00;;;;7400673;19;20212;-85
2024/01/04 12:16:14;;;;;;;8.07;1.37;;;;;8.40;93079.00;;;;7401774;19;20575;-85
2024/01/04 12:18:43;;;;;;;7.70;1.70;;;;;9.30;93129.00;;;;7401623;19;20161;-86
2024/01/04 12:21:17;;;;;;;8.77;1.83;;;;;7.10;93099.00;;;;7402253;19;20136;-85
2024/01/04 12:23:48;;;;;;;8.13;1.57;;;;;6.70;93118.00;;;;7401142;19;20163;-83
2024/01/04 12:26:24;;;;;;;3.40;1.43;;;;;6.40;93113.00;;;;7401662;19;20137;-86
2024/01/04 12:28:52;;;;;;;6.27;1.33;;;;;6.00;93124.00;;;;7401294;19;20561;-86
2024/01/04 12:31:26;;;;;;;4.43;1.20;;;;;5.70;93122.00;;;;7400210;19;20608;-87
2024/01/04 12:33:57;;;;;;;7.43;1.40;;;;;5.80;93096.00;;;;7399737;19;20855;-86
2024/01/04 12:36:32;;;;;;;8.07;1.93;;;;;6.90;93105.00;;;;7399864;19;20148;-87
2024/01/04 12:39:11;;;;;;;11.20;1.60;;;;;6.80;93104.00;;;;7398645;19;20151;-87
2024/01/04 12:41:52;;;;;;;7.10;1.67;;;;;7.20;93131.00;;;;7401736;19;20503;-87
2024/01/04 12:44:20;;;;;;;6.00;1.50;;;;;5.90;93124.00;;;;7401208;19;20596;-86
2024/01/04 12:47:04;;;;;;;8.20;1.37;;;;;6.80;93096.00;;;;7400211;19;20913;-85
2024/01/04 12:49:40;;;;;;;3.63;1.27;;;;;7.00;93104.00;;;;7399171;19;20144;-88
2024/01/04 12:52:15;;;;;;;7.00;1.33;;;;;7.40;93121.00;;;;7403698;19;20525;-86
2024/01/04 12:54:49;;;;;;;5.93;1.87;;;;;8.90;93099.00;;;;7401420;19;20124;-89
2024/01/04 12:57:17;;;;;;;5.00;1.37;;;;;8.90;93121.00;;;;7401085;19;20599;-86